David L. Griggs — WDE5778 — position and weather

sailwx.info

Track history (hours):
 
Tides and Currents Weather Stations Pressure Air Temp Water Temp Dewpoint Dewpoint Depression Visibility Wind Speed Wind Dir Waves Ship Positions

David L. Griggs

Owner: Marquette Transportation Company, LLC, Paducah, KY. More information available from US FCC via Universal Licensing System and Coast Guard Vessel Documentation Center.

Last reported at 2017-Jan-09 14:09 UTC. Time now 2017-Jan-23 23:10 UTC.
Position N 38°53' W 090°12'.
Warning: this ship's position is 14 days out of date.

Length 50 m.

Type: Tow > 200 m length. MMSI: 367371510.

Date/timePositionNaut miles runAvg speedWind from/ knotsBaromVisibWave heightAir tempDewpointWater temp
2017-Jan-09 14:09N 38°53' W 090°12'3 5.1
2017-Jan-09 13:33N 38°55' W 090°15'0 0.4
2017-Jan-09 12:28N 38°55' W 090°15'0 0.0
2017-Jan-09 11:31N 38°55' W 090°16'0 0.2
2017-Jan-09 10:27N 38°55' W 090°15'0 0.2
2017-Jan-09 09:31N 38°55' W 090°16'4 4.0
2017-Jan-09 08:33N 38°56' W 090°20'5 5.3
2017-Jan-09 07:33N 38°58' W 090°27'5 4.7
2017-Jan-09 06:33N 38°58' W 090°33'  
2017-Jan-01 12:12N 38°58' W 090°33'3 4.9
2017-Jan-01 11:33N 38°58' W 090°29'5 5.4
2017-Jan-01 10:34N 38°57' W 090°22'9 0.7
2016-Dec-31 22:09N 38°53' W 090°11'3 4.9
2016-Dec-31 21:31N 38°55' W 090°14'2 0.5
2016-Dec-31 18:33N 38°55' W 090°17'7 6.7
2016-Dec-31 17:34N 38°58' W 090°24'6 6.2
2016-Dec-31 16:33N 38°58' W 090°32'  
Track history (hours):
 
Tides and Currents Weather Stations Pressure Air Temp Water Temp Dewpoint Dewpoint Depression Visibility Wind Speed Wind Dir Waves Ship Positions

David L. Griggs

Owner: Marquette Transportation Company, LLC, Paducah, KY. More information available from US FCC via Universal Licensing System and Coast Guard Vessel Documentation Center.

Last reported at 2017-Jan-09 14:09 UTC. Time now 2017-Jan-23 23:10 UTC.
Position N 38°53' W 090°12'.
Warning: this ship's position is 14 days out of date.

Length 50 m.

Type: Tow > 200 m length. MMSI: 367371510.

Date/timePositionNaut miles runAvg speedWind from/ knotsBaromVisibWave heightAir tempDewpointWater temp
2017-Jan-09 14:09N 38°53' W 090°12'3 5.1
2017-Jan-09 13:33N 38°55' W 090°15'0 0.4
2017-Jan-09 12:28N 38°55' W 090°15'0 0.0
2017-Jan-09 11:31N 38°55' W 090°16'0 0.2
2017-Jan-09 10:27N 38°55' W 090°15'0 0.2
2017-Jan-09 09:31N 38°55' W 090°16'4 4.0
2017-Jan-09 08:33N 38°56' W 090°20'5 5.3
2017-Jan-09 07:33N 38°58' W 090°27'5 4.7
2017-Jan-09 06:33N 38°58' W 090°33'  
2017-Jan-01 12:12N 38°58' W 090°33'3 4.9
2017-Jan-01 11:33N 38°58' W 090°29'5 5.4
2017-Jan-01 10:34N 38°57' W 090°22'9 0.7
2016-Dec-31 22:09N 38°53' W 090°11'3 4.9
2016-Dec-31 21:31N 38°55' W 090°14'2 0.5
2016-Dec-31 18:33N 38°55' W 090°17'7 6.7
2016-Dec-31 17:34N 38°58' W 090°24'6 6.2
2016-Dec-31 16:33N 38°58' W 090°32'  

Dump ship's entire track history